sensor_id;sensor_type;location;lat;lon;timestamp;P1;durP1;ratioP1;P2;durP2;ratioP2
29574;SDS011;16507;51.046;6.406;2022-08-19T00:00:17;18.70;;;15.85;;
29574;SDS011;16507;51.046;6.406;2022-08-19T00:02:44;23.95;;;15.02;;
29574;SDS011;16507;51.046;6.406;2022-08-19T00:05:11;30.17;;;15.68;;
29574;SDS011;16507;51.046;6.406;2022-08-19T00:07:38;19.80;;;14.95;;
29574;SDS011;16507;51.046;6.406;2022-08-19T00:10:05;18.85;;;15.32;;
29574;SDS011;16507;51.046;6.406;2022-08-19T00:12:33;20.75;;;16.17;;
29574;SDS011;16507;51.046;6.406;2022-08-19T00:14:59;18.85;;;15.52;;
29574;SDS011;16507;51.046;6.406;2022-08-19T00:17:25;20.15;;;15.93;;
29574;SDS011;16507;51.046;6.406;2022-08-19T00:19:51;23.08;;;16.55;;
29574;SDS011;16507;51.046;6.406;2022-08-19T00:22:16;18.60;;;16.67;;
29574;SDS011;16507;51.046;6.406;2022-08-19T00:24:43;21.33;;;16.33;;
29574;SDS011;16507;51.046;6.406;2022-08-19T00:27:10;22.48;;;17.80;;
29574;SDS011;16507;51.046;6.406;2022-08-19T00:29:36;29.92;;;18.48;;
29574;SDS011;16507;51.046;6.406;2022-08-19T00:32:03;31.83;;;18.30;;
29574;SDS011;16507;51.046;6.406;2022-08-19T00:34:29;25.55;;;17.05;;
29574;SDS011;16507;51.046;6.406;2022-08-19T00:36:55;24.45;;;18.58;;
29574;SDS011;16507;51.046;6.406;2022-08-19T00:39:20;22.13;;;19.73;;
29574;SDS011;16507;51.046;6.406;2022-08-19T00:41:46;22.90;;;20.02;;
29574;SDS011;16507;51.046;6.406;2022-08-19T00:44:19;24.67;;;20.60;;
29574;SDS011;16507;51.046;6.406;2022-08-19T00:46:49;26.98;;;19.63;;
29574;SDS011;16507;51.046;6.406;2022-08-19T00:49:19;29.30;;;18.10;;
29574;SDS011;16507;51.046;6.406;2022-08-19T00:51:48;24.52;;;19.98;;
29574;SDS011;16507;51.046;6.406;2022-08-19T00:54:18;21.90;;;19.55;;
29574;SDS011;16507;51.046;6.406;2022-08-19T00:56:44;26.48;;;19.35;;
29574;SDS011;16507;51.046;6.406;2022-08-19T00:59:11;22.08;;;19.70;;
29574;SDS011;16507;51.046;6.406;2022-08-19T01:01:38;27.52;;;20.08;;
29574;SDS011;16507;51.046;6.406;2022-08-19T01:04:05;30.63;;;21.38;;
29574;SDS011;16507;51.046;6.406;2022-08-19T01:06:31;25.67;;;22.52;;
29574;SDS011;16507;51.046;6.406;2022-08-19T01:08:58;28.17;;;22.83;;
29574;SDS011;16507;51.046;6.406;2022-08-19T01:11:26;26.88;;;22.52;;
29574;SDS011;16507;51.046;6.406;2022-08-19T01:13:53;26.90;;;23.05;;
29574;SDS011;16507;51.046;6.406;2022-08-19T01:16:20;35.22;;;25.23;;
29574;SDS011;16507;51.046;6.406;2022-08-19T01:18:48;36.65;;;25.05;;
29574;SDS011;16507;51.046;6.406;2022-08-19T01:21:23;36.08;;;24.40;;
29574;SDS011;16507;51.046;6.406;2022-08-19T01:23:54;32.15;;;23.48;;
29574;SDS011;16507;51.046;6.406;2022-08-19T01:26:21;36.88;;;25.33;;
29574;SDS011;16507;51.046;6.406;2022-08-19T01:28:48;36.28;;;23.55;;
29574;SDS011;16507;51.046;6.406;2022-08-19T01:31:18;27.05;;;22.75;;
29574;SDS011;16507;51.046;6.406;2022-08-19T01:33:47;29.95;;;24.30;;
29574;SDS011;16507;51.046;6.406;2022-08-19T01:36:16;45.42;;;23.45;;
29574;SDS011;16507;51.046;6.406;2022-08-19T01:38:51;34.08;;;24.77;;
29574;SDS011;16507;51.046;6.406;2022-08-19T01:41:16;34.08;;;23.92;;
29574;SDS011;16507;51.046;6.406;2022-08-19T01:43:42;34.25;;;25.23;;
29574;SDS011;16507;51.046;6.406;2022-08-19T01:46:08;31.48;;;25.30;;
29574;SDS011;16507;51.046;6.406;2022-08-19T01:48:38;36.22;;;26.02;;
29574;SDS011;16507;51.046;6.406;2022-08-19T01:51:06;35.67;;;25.80;;
29574;SDS011;16507;51.046;6.406;2022-08-19T01:53:33;36.72;;;27.40;;
29574;SDS011;16507;51.046;6.406;2022-08-19T01:55:59;36.97;;;28.30;;
29574;SDS011;16507;51.046;6.406;2022-08-19T01:58:28;37.20;;;28.45;;
29574;SDS011;16507;51.046;6.406;2022-08-19T02:01:01;41.30;;;29.08;;
29574;SDS011;16507;51.046;6.406;2022-08-19T02:03:28;39.50;;;31.95;;
29574;SDS011;16507;51.046;6.406;2022-08-19T02:05:59;48.38;;;33.90;;
29574;SDS011;16507;51.046;6.406;2022-08-19T02:08:27;41.17;;;32.30;;
29574;SDS011;16507;51.046;6.406;2022-08-19T02:10:55;43.72;;;31.27;;
29574;SDS011;16507;51.046;6.406;2022-08-19T02:13:21;43.28;;;33.03;;
29574;SDS011;16507;51.046;6.406;2022-08-19T02:15:47;45.78;;;31.77;;
29574;SDS011;16507;51.046;6.406;2022-08-19T02:18:13;43.10;;;32.95;;
29574;SDS011;16507;51.046;6.406;2022-08-19T02:20:39;47.08;;;33.47;;
29574;SDS011;16507;51.046;6.406;2022-08-19T02:23:05;45.13;;;34.35;;
29574;SDS011;16507;51.046;6.406;2022-08-19T02:25:31;55.50;;;35.50;;
29574;SDS011;16507;51.046;6.406;2022-08-19T02:27:57;53.35;;;37.63;;
29574;SDS011;16507;51.046;6.406;2022-08-19T02:30:23;53.42;;;38.55;;
29574;SDS011;16507;51.046;6.406;2022-08-19T02:32:49;60.83;;;41.92;;
29574;SDS011;16507;51.046;6.406;2022-08-19T02:35:16;55.72;;;41.65;;
29574;SDS011;16507;51.046;6.406;2022-08-19T02:37:42;56.90;;;40.40;;
29574;SDS011;16507;51.046;6.406;2022-08-19T02:40:28;61.63;;;43.42;;
29574;SDS011;16507;51.046;6.406;2022-08-19T02:42:56;61.30;;;43.90;;
29574;SDS011;16507;51.046;6.406;2022-08-19T02:45:22;57.58;;;42.17;;
29574;SDS011;16507;51.046;6.406;2022-08-19T02:47:48;64.88;;;44.72;;
29574;SDS011;16507;51.046;6.406;2022-08-19T02:50:13;66.68;;;42.67;;
29574;SDS011;16507;51.046;6.406;2022-08-19T02:52:39;60.95;;;43.50;;
29574;SDS011;16507;51.046;6.406;2022-08-19T02:55:05;59.15;;;41.13;;
29574;SDS011;16507;51.046;6.406;2022-08-19T02:57:31;72.38;;;44.00;;
29574;SDS011;16507;51.046;6.406;2022-08-19T02:59:57;60.40;;;40.40;;
29574;SDS011;16507;51.046;6.406;2022-08-19T03:02:23;58.30;;;41.85;;
29574;SDS011;16507;51.046;6.406;2022-08-19T03:04:48;64.93;;;42.97;;
29574;SDS011;16507;51.046;6.406;2022-08-19T03:07:15;58.15;;;42.60;;
29574;SDS011;16507;51.046;6.406;2022-08-19T03:09:42;69.28;;;44.97;;
29574;SDS011;16507;51.046;6.406;2022-08-19T03:12:08;69.15;;;44.97;;
29574;SDS011;16507;51.046;6.406;2022-08-19T03:14:34;72.20;;;46.15;;
29574;SDS011;16507;51.046;6.406;2022-08-19T03:17:00;68.15;;;45.00;;
29574;SDS011;16507;51.046;6.406;2022-08-19T03:19:26;69.60;;;46.15;;
29574;SDS011;16507;51.046;6.406;2022-08-19T03:21:52;68.25;;;45.25;;
29574;SDS011;16507;51.046;6.406;2022-08-19T03:24:18;65.65;;;45.30;;
29574;SDS011;16507;51.046;6.406;2022-08-19T03:26:48;68.93;;;45.60;;
29574;SDS011;16507;51.046;6.406;2022-08-19T03:29:16;71.68;;;44.90;;
29574;SDS011;16507;51.046;6.406;2022-08-19T03:31:43;62.00;;;44.10;;
29574;SDS011;16507;51.046;6.406;2022-08-19T03:34:28;64.40;;;42.28;;
29574;SDS011;16507;51.046;6.406;2022-08-19T03:36:55;61.97;;;42.78;;
29574;SDS011;16507;51.046;6.406;2022-08-19T03:39:23;74.32;;;43.50;;
29574;SDS011;16507;51.046;6.406;2022-08-19T03:41:50;64.15;;;41.97;;
29574;SDS011;16507;51.046;6.406;2022-08-19T03:44:18;62.60;;;42.63;;
29574;SDS011;16507;51.046;6.406;2022-08-19T03:46:51;65.03;;;42.88;;
29574;SDS011;16507;51.046;6.406;2022-08-19T03:49:20;63.60;;;42.65;;
29574;SDS011;16507;51.046;6.406;2022-08-19T03:51:48;68.18;;;43.90;;
29574;SDS011;16507;51.046;6.406;2022-08-19T03:54:16;66.60;;;42.38;;
29574;SDS011;16507;51.046;6.406;2022-08-19T03:56:44;72.65;;;43.65;;
29574;SDS011;16507;51.046;6.406;2022-08-19T03:59:12;68.22;;;43.50;;
29574;SDS011;16507;51.046;6.406;2022-08-19T04:01:45;69.43;;;42.38;;
29574;SDS011;16507;51.046;6.406;2022-08-19T04:04:11;74.22;;;43.70;;
29574;SDS011;16507;51.046;6.406;2022-08-19T04:06:37;65.68;;;43.83;;
29574;SDS011;16507;51.046;6.406;2022-08-19T04:09:04;65.97;;;42.50;;
29574;SDS011;16507;51.046;6.406;2022-08-19T04:11:36;63.60;;;42.67;;
29574;SDS011;16507;51.046;6.406;2022-08-19T04:14:07;67.97;;;43.92;;
29574;SDS011;16507;51.046;6.406;2022-08-19T04:16:37;74.65;;;42.53;;
29574;SDS011;16507;51.046;6.406;2022-08-19T04:19:04;62.67;;;41.40;;
29574;SDS011;16507;51.046;6.406;2022-08-19T04:21:30;66.28;;;42.83;;
29574;SDS011;16507;51.046;6.406;2022-08-19T04:23:56;63.35;;;40.50;;
29574;SDS011;16507;51.046;6.406;2022-08-19T04:26:24;66.05;;;41.33;;
29574;SDS011;16507;51.046;6.406;2022-08-19T04:28:52;62.53;;;43.05;;
29574;SDS011;16507;51.046;6.406;2022-08-19T04:31:19;60.65;;;42.65;;
29574;SDS011;16507;51.046;6.406;2022-08-19T04:33:46;64.55;;;43.33;;
29574;SDS011;16507;51.046;6.406;2022-08-19T04:36:16;67.82;;;42.40;;
29574;SDS011;16507;51.046;6.406;2022-08-19T04:38:44;67.00;;;43.15;;
29574;SDS011;16507;51.046;6.406;2022-08-19T04:41:10;64.65;;;43.38;;
29574;SDS011;16507;51.046;6.406;2022-08-19T04:43:54;67.10;;;41.80;;
29574;SDS011;16507;51.046;6.406;2022-08-19T04:46:19;71.13;;;42.92;;
29574;SDS011;16507;51.046;6.406;2022-08-19T04:48:45;65.38;;;41.67;;
29574;SDS011;16507;51.046;6.406;2022-08-19T04:51:11;65.95;;;44.25;;
29574;SDS011;16507;51.046;6.406;2022-08-19T04:53:38;62.88;;;41.88;;
29574;SDS011;16507;51.046;6.406;2022-08-19T04:56:08;61.20;;;40.58;;
29574;SDS011;16507;51.046;6.406;2022-08-19T04:58:46;65.88;;;44.35;;
29574;SDS011;16507;51.046;6.406;2022-08-19T05:01:14;69.10;;;44.42;;
29574;SDS011;16507;51.046;6.406;2022-08-19T05:03:46;68.97;;;44.08;;
29574;SDS011;16507;51.046;6.406;2022-08-19T05:06:13;65.15;;;42.28;;
29574;SDS011;16507;51.046;6.406;2022-08-19T05:08:41;78.05;;;42.40;;
29574;SDS011;16507;51.046;6.406;2022-08-19T05:11:12;71.47;;;42.47;;
29574;SDS011;16507;51.046;6.406;2022-08-19T05:13:43;72.15;;;43.85;;
29574;SDS011;16507;51.046;6.406;2022-08-19T05:16:10;73.57;;;43.10;;
29574;SDS011;16507;51.046;6.406;2022-08-19T05:18:38;67.13;;;42.67;;
29574;SDS011;16507;51.046;6.406;2022-08-19T05:21:23;69.75;;;43.05;;
29574;SDS011;16507;51.046;6.406;2022-08-19T05:24:08;73.10;;;44.05;;
29574;SDS011;16507;51.046;6.406;2022-08-19T05:26:38;69.88;;;44.30;;
29574;SDS011;16507;51.046;6.406;2022-08-19T05:29:07;70.82;;;43.53;;
29574;SDS011;16507;51.046;6.406;2022-08-19T05:31:33;71.15;;;44.08;;
29574;SDS011;16507;51.046;6.406;2022-08-19T05:34:01;71.57;;;43.47;;
29574;SDS011;16507;51.046;6.406;2022-08-19T05:36:29;73.30;;;43.65;;
29574;SDS011;16507;51.046;6.406;2022-08-19T05:39:04;68.47;;;42.83;;
29574;SDS011;16507;51.046;6.406;2022-08-19T05:41:32;64.93;;;41.60;;
29574;SDS011;16507;51.046;6.406;2022-08-19T05:44:00;64.00;;;42.25;;
29574;SDS011;16507;51.046;6.406;2022-08-19T05:46:27;72.65;;;44.63;;
29574;SDS011;16507;51.046;6.406;2022-08-19T05:48:54;70.47;;;42.40;;
29574;SDS011;16507;51.046;6.406;2022-08-19T05:51:21;65.97;;;42.10;;
29574;SDS011;16507;51.046;6.406;2022-08-19T05:53:47;72.47;;;44.45;;
29574;SDS011;16507;51.046;6.406;2022-08-19T05:56:15;73.15;;;43.67;;
29574;SDS011;16507;51.046;6.406;2022-08-19T05:58:41;72.68;;;43.92;;
29574;SDS011;16507;51.046;6.406;2022-08-19T06:01:10;71.55;;;43.13;;
29574;SDS011;16507;51.046;6.406;2022-08-19T06:03:37;71.70;;;44.38;;
29574;SDS011;16507;51.046;6.406;2022-08-19T06:06:04;73.10;;;42.47;;
29574;SDS011;16507;51.046;6.406;2022-08-19T06:08:32;69.72;;;43.10;;
29574;SDS011;16507;51.046;6.406;2022-08-19T06:11:11;71.82;;;43.20;;
29574;SDS011;16507;51.046;6.406;2022-08-19T06:13:48;76.07;;;45.38;;
29574;SDS011;16507;51.046;6.406;2022-08-19T06:16:18;79.45;;;44.80;;
29574;SDS011;16507;51.046;6.406;2022-08-19T06:18:48;75.45;;;44.53;;
29574;SDS011;16507;51.046;6.406;2022-08-19T06:21:16;77.07;;;44.78;;
29574;SDS011;16507;51.046;6.406;2022-08-19T06:23:46;78.70;;;44.40;;
29574;SDS011;16507;51.046;6.406;2022-08-19T06:26:13;72.82;;;43.38;;
29574;SDS011;16507;51.046;6.406;2022-08-19T06:28:40;76.07;;;43.22;;
29574;SDS011;16507;51.046;6.406;2022-08-19T06:31:11;78.45;;;46.97;;
29574;SDS011;16507;51.046;6.406;2022-08-19T06:33:39;79.28;;;45.80;;
29574;SDS011;16507;51.046;6.406;2022-08-19T06:36:05;84.53;;;45.92;;
29574;SDS011;16507;51.046;6.406;2022-08-19T06:38:31;84.88;;;45.90;;
29574;SDS011;16507;51.046;6.406;2022-08-19T06:41:02;85.88;;;46.85;;
29574;SDS011;16507;51.046;6.406;2022-08-19T06:43:29;83.32;;;44.78;;
29574;SDS011;16507;51.046;6.406;2022-08-19T06:45:54;87.45;;;46.65;;
29574;SDS011;16507;51.046;6.406;2022-08-19T06:48:20;90.38;;;48.25;;
29574;SDS011;16507;51.046;6.406;2022-08-19T06:50:46;84.40;;;46.90;;
29574;SDS011;16507;51.046;6.406;2022-08-19T06:53:13;89.32;;;47.38;;
29574;SDS011;16507;51.046;6.406;2022-08-19T06:55:39;81.57;;;46.55;;
29574;SDS011;16507;51.046;6.406;2022-08-19T06:58:05;103.53;;;49.00;;
29574;SDS011;16507;51.046;6.406;2022-08-19T07:00:31;83.90;;;45.67;;
29574;SDS011;16507;51.046;6.406;2022-08-19T07:02:57;87.80;;;47.20;;
29574;SDS011;16507;51.046;6.406;2022-08-19T07:05:23;86.40;;;45.63;;
29574;SDS011;16507;51.046;6.406;2022-08-19T07:07:50;75.43;;;42.53;;
29574;SDS011;16507;51.046;6.406;2022-08-19T07:10:15;78.10;;;42.72;;
29574;SDS011;16507;51.046;6.406;2022-08-19T07:12:41;78.65;;;42.15;;
29574;SDS011;16507;51.046;6.406;2022-08-19T07:15:06;77.05;;;43.38;;
29574;SDS011;16507;51.046;6.406;2022-08-19T07:17:35;79.25;;;42.00;;
29574;SDS011;16507;51.046;6.406;2022-08-19T07:20:03;78.28;;;43.50;;
29574;SDS011;16507;51.046;6.406;2022-08-19T07:22:31;73.32;;;41.28;;
29574;SDS011;16507;51.046;6.406;2022-08-19T07:24:58;69.82;;;40.25;;
29574;SDS011;16507;51.046;6.406;2022-08-19T07:27:25;67.68;;;39.70;;
29574;SDS011;16507;51.046;6.406;2022-08-19T07:29:51;77.00;;;39.95;;
29574;SDS011;16507;51.046;6.406;2022-08-19T07:32:19;71.90;;;40.65;;
29574;SDS011;16507;51.046;6.406;2022-08-19T07:34:45;74.13;;;39.00;;
29574;SDS011;16507;51.046;6.406;2022-08-19T07:37:11;71.00;;;37.92;;
29574;SDS011;16507;51.046;6.406;2022-08-19T07:39:37;55.28;;;32.75;;
29574;SDS011;16507;51.046;6.406;2022-08-19T07:42:06;61.88;;;33.83;;
29574;SDS011;16507;51.046;6.406;2022-08-19T07:44:34;46.03;;;30.10;;
29574;SDS011;16507;51.046;6.406;2022-08-19T07:47:00;52.35;;;29.40;;
29574;SDS011;16507;51.046;6.406;2022-08-19T07:49:27;50.45;;;30.88;;
29574;SDS011;16507;51.046;6.406;2022-08-19T07:51:54;45.08;;;28.60;;
29574;SDS011;16507;51.046;6.406;2022-08-19T07:54:23;47.03;;;27.98;;
29574;SDS011;16507;51.046;6.406;2022-08-19T07:56:50;44.67;;;27.75;;
29574;SDS011;16507;51.046;6.406;2022-08-19T07:59:16;42.25;;;27.70;;
29574;SDS011;16507;51.046;6.406;2022-08-19T08:01:43;45.83;;;27.33;;
29574;SDS011;16507;51.046;6.406;2022-08-19T08:04:09;40.60;;;26.67;;
29574;SDS011;16507;51.046;6.406;2022-08-19T08:06:54;32.67;;;23.05;;
29574;SDS011;16507;51.046;6.406;2022-08-19T08:09:39;32.85;;;21.23;;
29574;SDS011;16507;51.046;6.406;2022-08-19T08:12:09;32.15;;;22.60;;
29574;SDS011;16507;51.046;6.406;2022-08-19T08:14:42;30.95;;;20.90;;
29574;SDS011;16507;51.046;6.406;2022-08-19T08:17:11;30.80;;;21.77;;
29574;SDS011;16507;51.046;6.406;2022-08-19T08:19:37;46.72;;;21.65;;
29574;SDS011;16507;51.046;6.406;2022-08-19T08:22:06;31.20;;;20.70;;
29574;SDS011;16507;51.046;6.406;2022-08-19T08:24:33;30.80;;;19.50;;
29574;SDS011;16507;51.046;6.406;2022-08-19T08:27:01;24.48;;;19.15;;
29574;SDS011;16507;51.046;6.406;2022-08-19T08:29:29;24.02;;;17.77;;
29574;SDS011;16507;51.046;6.406;2022-08-19T08:31:56;31.55;;;17.60;;
29574;SDS011;16507;51.046;6.406;2022-08-19T08:34:22;29.48;;;18.30;;
29574;SDS011;16507;51.046;6.406;2022-08-19T08:36:48;27.95;;;20.13;;
29574;SDS011;16507;51.046;6.406;2022-08-19T08:39:16;35.08;;;20.70;;
29574;SDS011;16507;51.046;6.406;2022-08-19T08:42:07;32.80;;;22.65;;
29574;SDS011;16507;51.046;6.406;2022-08-19T08:47:23;31.00;;;21.15;;
29574;SDS011;16507;51.046;6.406;2022-08-19T08:49:54;29.27;;;17.15;;
29574;SDS011;16507;51.046;6.406;2022-08-19T08:52:28;27.70;;;17.40;;
29574;SDS011;16507;51.046;6.406;2022-08-19T08:54:57;24.25;;;17.85;;
29574;SDS011;16507;51.046;6.406;2022-08-19T08:57:39;23.55;;;17.73;;
29574;SDS011;16507;51.046;6.406;2022-08-19T09:00:24;27.50;;;19.05;;
29574;SDS011;16507;51.046;6.406;2022-08-19T09:02:54;33.20;;;22.63;;
29574;SDS011;16507;51.046;6.406;2022-08-19T09:05:22;30.88;;;22.13;;
29574;SDS011;16507;51.046;6.406;2022-08-19T09:10:34;28.95;;;21.92;;
29574;SDS011;16507;51.046;6.406;2022-08-19T09:15:55;31.75;;;23.45;;
29574;SDS011;16507;51.046;6.406;2022-08-19T09:18:38;43.88;;;23.30;;
29574;SDS011;16507;51.046;6.406;2022-08-19T09:21:06;31.10;;;22.35;;
29574;SDS011;16507;51.046;6.406;2022-08-19T09:23:33;23.58;;;18.58;;
29574;SDS011;16507;51.046;6.406;2022-08-19T09:26:00;23.33;;;18.73;;
29574;SDS011;16507;51.046;6.406;2022-08-19T09:28:25;23.73;;;17.98;;
29574;SDS011;16507;51.046;6.406;2022-08-19T09:30:52;28.08;;;18.85;;
29574;SDS011;16507;51.046;6.406;2022-08-19T09:33:18;27.50;;;19.65;;
29574;SDS011;16507;51.046;6.406;2022-08-19T09:35:44;25.00;;;19.73;;
29574;SDS011;16507;51.046;6.406;2022-08-19T09:38:11;94.45;;;22.40;;
29574;SDS011;16507;51.046;6.406;2022-08-19T09:40:36;29.17;;;20.83;;
29574;SDS011;16507;51.046;6.406;2022-08-19T09:43:03;27.60;;;19.25;;
29574;SDS011;16507;51.046;6.406;2022-08-19T09:45:30;27.73;;;18.92;;
29574;SDS011;16507;51.046;6.406;2022-08-19T09:47:56;23.85;;;18.42;;
29574;SDS011;16507;51.046;6.406;2022-08-19T09:50:22;23.65;;;18.08;;
29574;SDS011;16507;51.046;6.406;2022-08-19T09:52:48;26.67;;;17.23;;
29574;SDS011;16507;51.046;6.406;2022-08-19T09:55:14;23.75;;;17.38;;
29574;SDS011;16507;51.046;6.406;2022-08-19T09:57:41;25.13;;;16.95;;
29574;SDS011;16507;51.046;6.406;2022-08-19T10:00:07;23.63;;;15.68;;
29574;SDS011;16507;51.046;6.406;2022-08-19T10:02:34;20.65;;;15.05;;
29574;SDS011;16507;51.046;6.406;2022-08-19T10:05:00;20.60;;;15.43;;
29574;SDS011;16507;51.046;6.406;2022-08-19T10:07:45;21.52;;;14.25;;
29574;SDS011;16507;51.046;6.406;2022-08-19T10:10:10;15.75;;;11.93;;
29574;SDS011;16507;51.046;6.406;2022-08-19T10:12:36;17.73;;;12.57;;
29574;SDS011;16507;51.046;6.406;2022-08-19T10:15:02;16.92;;;12.25;;
29574;SDS011;16507;51.046;6.406;2022-08-19T10:17:31;16.77;;;11.98;;
29574;SDS011;16507;51.046;6.406;2022-08-19T10:19:58;14.57;;;11.68;;
29574;SDS011;16507;51.046;6.406;2022-08-19T10:22:25;13.07;;;11.40;;
29574;SDS011;16507;51.046;6.406;2022-08-19T10:24:51;12.88;;;10.85;;
29574;SDS011;16507;51.046;6.406;2022-08-19T10:27:17;14.88;;;10.55;;
29574;SDS011;16507;51.046;6.406;2022-08-19T10:29:43;14.80;;;11.40;;
29574;SDS011;16507;51.046;6.406;2022-08-19T10:32:09;14.85;;;10.23;;
29574;SDS011;16507;51.046;6.406;2022-08-19T10:34:36;18.35;;;11.63;;
29574;SDS011;16507;51.046;6.406;2022-08-19T10:37:03;14.15;;;11.95;;
29574;SDS011;16507;51.046;6.406;2022-08-19T10:39:31;20.08;;;12.48;;
29574;SDS011;16507;51.046;6.406;2022-08-19T10:41:58;14.40;;;12.93;;
29574;SDS011;16507;51.046;6.406;2022-08-19T10:44:24;14.80;;;12.35;;
29574;SDS011;16507;51.046;6.406;2022-08-19T10:46:50;16.25;;;13.15;;
29574;SDS011;16507;51.046;6.406;2022-08-19T10:49:17;20.10;;;12.90;;
29574;SDS011;16507;51.046;6.406;2022-08-19T10:51:44;17.63;;;12.65;;
29574;SDS011;16507;51.046;6.406;2022-08-19T10:54:28;21.23;;;14.13;;
29574;SDS011;16507;51.046;6.406;2022-08-19T10:57:13;17.60;;;13.10;;
29574;SDS011;16507;51.046;6.406;2022-08-19T10:59:40;21.90;;;13.32;;
29574;SDS011;16507;51.046;6.406;2022-08-19T11:02:07;19.58;;;13.75;;
29574;SDS011;16507;51.046;6.406;2022-08-19T11:04:38;16.08;;;12.68;;
29574;SDS011;16507;51.046;6.406;2022-08-19T11:07:05;34.55;;;14.18;;
29574;SDS011;16507;51.046;6.406;2022-08-19T11:09:31;13.93;;;12.00;;
29574;SDS011;16507;51.046;6.406;2022-08-19T11:12:04;22.20;;;13.20;;
29574;SDS011;16507;51.046;6.406;2022-08-19T11:14:30;20.40;;;13.15;;
29574;SDS011;16507;51.046;6.406;2022-08-19T11:16:57;14.40;;;12.73;;
29574;SDS011;16507;51.046;6.406;2022-08-19T11:19:23;14.25;;;11.68;;
29574;SDS011;16507;51.046;6.406;2022-08-19T11:21:49;84.72;;;15.43;;
29574;SDS011;16507;51.046;6.406;2022-08-19T11:24:21;11.85;;;10.60;;
29574;SDS011;16507;51.046;6.406;2022-08-19T11:26:49;13.98;;;11.55;;
29574;SDS011;16507;51.046;6.406;2022-08-19T11:29:18;12.88;;;10.35;;
29574;SDS011;16507;51.046;6.406;2022-08-19T11:31:46;20.77;;;9.05;;
29574;SDS011;16507;51.046;6.406;2022-08-19T11:34:14;17.20;;;10.23;;
29574;SDS011;16507;51.046;6.406;2022-08-19T11:36:43;12.38;;;9.43;;
29574;SDS011;16507;51.046;6.406;2022-08-19T11:39:12;14.27;;;10.45;;
29574;SDS011;16507;51.046;6.406;2022-08-19T11:41:45;12.57;;;9.80;;
29574;SDS011;16507;51.046;6.406;2022-08-19T11:44:11;14.98;;;10.23;;
29574;SDS011;16507;51.046;6.406;2022-08-19T11:46:38;11.30;;;8.35;;
29574;SDS011;16507;51.046;6.406;2022-08-19T11:49:05;12.45;;;9.18;;
29574;SDS011;16507;51.046;6.406;2022-08-19T11:51:32;7.65;;;6.95;;
29574;SDS011;16507;51.046;6.406;2022-08-19T11:53:59;10.15;;;7.93;;
29574;SDS011;16507;51.046;6.406;2022-08-19T11:56:25;10.70;;;6.93;;
29574;SDS011;16507;51.046;6.406;2022-08-19T11:58:52;11.40;;;7.20;;
29574;SDS011;16507;51.046;6.406;2022-08-19T12:01:20;8.57;;;7.65;;
29574;SDS011;16507;51.046;6.406;2022-08-19T12:03:48;10.25;;;9.25;;
29574;SDS011;16507;51.046;6.406;2022-08-19T12:06:17;11.52;;;9.05;;
29574;SDS011;16507;51.046;6.406;2022-08-19T12:08:53;9.55;;;8.73;;
29574;SDS011;16507;51.046;6.406;2022-08-19T12:11:20;9.60;;;8.68;;
29574;SDS011;16507;51.046;6.406;2022-08-19T12:13:46;10.48;;;9.38;;
29574;SDS011;16507;51.046;6.406;2022-08-19T12:16:23;10.63;;;8.73;;
29574;SDS011;16507;51.046;6.406;2022-08-19T12:18:51;13.35;;;7.68;;
29574;SDS011;16507;51.046;6.406;2022-08-19T12:21:20;8.07;;;7.20;;
29574;SDS011;16507;51.046;6.406;2022-08-19T12:23:48;12.52;;;7.70;;
29574;SDS011;16507;51.046;6.406;2022-08-19T12:26:15;7.32;;;6.72;;
29574;SDS011;16507;51.046;6.406;2022-08-19T12:28:41;7.13;;;6.53;;
29574;SDS011;16507;51.046;6.406;2022-08-19T12:31:07;8.07;;;7.20;;
29574;SDS011;16507;51.046;6.406;2022-08-19T12:33:36;7.97;;;7.22;;
29574;SDS011;16507;51.046;6.406;2022-08-19T12:36:03;10.02;;;6.50;;
29574;SDS011;16507;51.046;6.406;2022-08-19T12:38:31;6.45;;;5.88;;
29574;SDS011;16507;51.046;6.406;2022-08-19T12:40:59;6.45;;;5.78;;
29574;SDS011;16507;51.046;6.406;2022-08-19T12:43:25;5.28;;;4.97;;
29574;SDS011;16507;51.046;6.406;2022-08-19T12:45:51;7.15;;;6.57;;
29574;SDS011;16507;51.046;6.406;2022-08-19T12:48:16;8.52;;;6.20;;
29574;SDS011;16507;51.046;6.406;2022-08-19T12:50:44;7.18;;;6.03;;
29574;SDS011;16507;51.046;6.406;2022-08-19T12:53:13;8.32;;;7.28;;
29574;SDS011;16507;51.046;6.406;2022-08-19T12:55:40;7.32;;;6.72;;
29574;SDS011;16507;51.046;6.406;2022-08-19T12:58:07;7.80;;;6.30;;
29574;SDS011;16507;51.046;6.406;2022-08-19T13:00:33;46.38;;;11.15;;
29574;SDS011;16507;51.046;6.406;2022-08-19T13:02:59;9.10;;;4.25;;
29574;SDS011;16507;51.046;6.406;2022-08-19T13:05:26;5.30;;;3.47;;
29574;SDS011;16507;51.046;6.406;2022-08-19T13:07:54;7.18;;;3.92;;
29574;SDS011;16507;51.046;6.406;2022-08-19T13:10:21;6.20;;;4.10;;
29574;SDS011;16507;51.046;6.406;2022-08-19T13:12:50;3.63;;;2.88;;
29574;SDS011;16507;51.046;6.406;2022-08-19T13:15:18;14.18;;;3.17;;
29574;SDS011;16507;51.046;6.406;2022-08-19T13:17:46;9.25;;;3.08;;
29574;SDS011;16507;51.046;6.406;2022-08-19T13:20:17;3.40;;;3.10;;
29574;SDS011;16507;51.046;6.406;2022-08-19T13:22:44;3.47;;;3.17;;
29574;SDS011;16507;51.046;6.406;2022-08-19T13:25:11;3.42;;;3.13;;
29574;SDS011;16507;51.046;6.406;2022-08-19T13:27:38;4.22;;;3.47;;
29574;SDS011;16507;51.046;6.406;2022-08-19T13:30:04;8.10;;;3.85;;
29574;SDS011;16507;51.046;6.406;2022-08-19T13:32:51;3.83;;;3.53;;
29574;SDS011;16507;51.046;6.406;2022-08-19T13:35:35;5.82;;;3.25;;
29574;SDS011;16507;51.046;6.406;2022-08-19T13:38:05;3.65;;;2.60;;
29574;SDS011;16507;51.046;6.406;2022-08-19T13:40:31;5.28;;;2.40;;
29574;SDS011;16507;51.046;6.406;2022-08-19T13:42:58;3.67;;;2.03;;
29574;SDS011;16507;51.046;6.406;2022-08-19T13:45:25;8.65;;;2.38;;
29574;SDS011;16507;51.046;6.406;2022-08-19T13:47:53;2.30;;;1.83;;
29574;SDS011;16507;51.046;6.406;2022-08-19T13:50:22;1.90;;;1.80;;
29574;SDS011;16507;51.046;6.406;2022-08-19T13:52:50;4.40;;;1.73;;
29574;SDS011;16507;51.046;6.406;2022-08-19T13:55:17;1.85;;;1.75;;
29574;SDS011;16507;51.046;6.406;2022-08-19T13:57:43;6.47;;;2.08;;
29574;SDS011;16507;51.046;6.406;2022-08-19T14:00:12;2.00;;;1.83;;
29574;SDS011;16507;51.046;6.406;2022-08-19T14:02:40;3.50;;;2.13;;
29574;SDS011;16507;51.046;6.406;2022-08-19T14:05:08;2.45;;;1.95;;
29574;SDS011;16507;51.046;6.406;2022-08-19T14:07:36;3.50;;;1.90;;
29574;SDS011;16507;51.046;6.406;2022-08-19T14:10:05;3.40;;;1.90;;
29574;SDS011;16507;51.046;6.406;2022-08-19T14:12:33;1.95;;;1.83;;
29574;SDS011;16507;51.046;6.406;2022-08-19T14:14:58;2.40;;;2.20;;
29574;SDS011;16507;51.046;6.406;2022-08-19T14:17:25;2.13;;;1.92;;
29574;SDS011;16507;51.046;6.406;2022-08-19T14:19:59;2.47;;;2.20;;
29574;SDS011;16507;51.046;6.406;2022-08-19T14:22:29;2.38;;;2.13;;
29574;SDS011;16507;51.046;6.406;2022-08-19T14:24:56;2.97;;;2.10;;
29574;SDS011;16507;51.046;6.406;2022-08-19T14:27:22;4.80;;;2.47;;
29574;SDS011;16507;51.046;6.406;2022-08-19T14:29:50;6.72;;;2.75;;
29574;SDS011;16507;51.046;6.406;2022-08-19T14:32:16;4.07;;;2.20;;
29574;SDS011;16507;51.046;6.406;2022-08-19T14:34:42;1.90;;;1.80;;
29574;SDS011;16507;51.046;6.406;2022-08-19T14:37:10;2.20;;;2.00;;
29574;SDS011;16507;51.046;6.406;2022-08-19T14:39:40;4.60;;;1.75;;